sensor_id;sensor_type;location;lat;lon;timestamp;P1;durP1;ratioP1;P2;durP2;ratioP2
75408;SDS011;63979;55.644;37.734;2024-03-08T00:01:50;4.82;;;2.17;;
75408;SDS011;63979;55.644;37.734;2024-03-08T00:06:51;2.22;;;1.52;;
75408;SDS011;63979;55.644;37.734;2024-03-08T00:11:52;3.15;;;1.42;;
75408;SDS011;63979;55.644;37.734;2024-03-08T00:16:53;3.85;;;2.15;;
75408;SDS011;63979;55.644;37.734;2024-03-08T00:21:54;3.50;;;2.08;;
75408;SDS011;63979;55.644;37.734;2024-03-08T00:26:55;4.35;;;2.45;;
75408;SDS011;63979;55.644;37.734;2024-03-08T00:31:56;2.55;;;1.83;;
75408;SDS011;63979;55.644;37.734;2024-03-08T00:36:58;5.05;;;2.30;;
75408;SDS011;63979;55.644;37.734;2024-03-08T00:41:59;2.97;;;1.90;;
75408;SDS011;63979;55.644;37.734;2024-03-08T00:46:59;2.53;;;1.38;;
75408;SDS011;63979;55.644;37.734;2024-03-08T00:52:00;3.30;;;1.52;;
75408;SDS011;63979;55.644;37.734;2024-03-08T00:57:01;2.60;;;1.30;;
75408;SDS011;63979;55.644;37.734;2024-03-08T01:02:03;3.35;;;1.63;;
75408;SDS011;63979;55.644;37.734;2024-03-08T01:07:04;2.15;;;1.50;;
75408;SDS011;63979;55.644;37.734;2024-03-08T01:12:05;1.80;;;1.55;;
75408;SDS011;63979;55.644;37.734;2024-03-08T01:17:07;3.13;;;1.30;;
75408;SDS011;63979;55.644;37.734;2024-03-08T01:22:10;3.00;;;2.17;;
75408;SDS011;63979;55.644;37.734;2024-03-08T01:27:11;6.22;;;2.50;;
75408;SDS011;63979;55.644;37.734;2024-03-08T01:32:13;4.22;;;1.52;;
75408;SDS011;63979;55.644;37.734;2024-03-08T01:37:15;1.98;;;1.35;;
75408;SDS011;63979;55.644;37.734;2024-03-08T01:42:16;2.70;;;1.63;;
75408;SDS011;63979;55.644;37.734;2024-03-08T01:47:17;3.13;;;1.83;;
75408;SDS011;63979;55.644;37.734;2024-03-08T01:52:20;2.20;;;1.42;;
75408;SDS011;63979;55.644;37.734;2024-03-08T01:57:23;5.82;;;1.60;;
75408;SDS011;63979;55.644;37.734;2024-03-08T02:02:23;1.50;;;0.82;;
75408;SDS011;63979;55.644;37.734;2024-03-08T02:07:25;2.65;;;2.08;;
75408;SDS011;63979;55.644;37.734;2024-03-08T02:12:26;1.23;;;0.90;;
75408;SDS011;63979;55.644;37.734;2024-03-08T02:17:27;2.90;;;1.65;;
75408;SDS011;63979;55.644;37.734;2024-03-08T02:22:28;3.13;;;1.30;;
75408;SDS011;63979;55.644;37.734;2024-03-08T02:27:30;4.70;;;1.85;;
75408;SDS011;63979;55.644;37.734;2024-03-08T02:32:31;3.80;;;2.15;;
75408;SDS011;63979;55.644;37.734;2024-03-08T02:37:33;4.30;;;1.90;;
75408;SDS011;63979;55.644;37.734;2024-03-08T02:42:33;2.85;;;1.80;;
75408;SDS011;63979;55.644;37.734;2024-03-08T02:47:34;3.80;;;1.23;;
75408;SDS011;63979;55.644;37.734;2024-03-08T02:52:35;1.88;;;1.08;;
75408;SDS011;63979;55.644;37.734;2024-03-08T02:57:36;7.28;;;1.75;;
75408;SDS011;63979;55.644;37.734;2024-03-08T03:02:37;11.13;;;1.83;;
75408;SDS011;63979;55.644;37.734;2024-03-08T03:07:38;3.95;;;1.65;;
75408;SDS011;63979;55.644;37.734;2024-03-08T03:12:39;3.90;;;2.22;;
75408;SDS011;63979;55.644;37.734;2024-03-08T03:17:40;3.40;;;2.03;;
75408;SDS011;63979;55.644;37.734;2024-03-08T03:22:41;3.85;;;1.55;;
75408;SDS011;63979;55.644;37.734;2024-03-08T03:27:45;3.13;;;1.80;;
75408;SDS011;63979;55.644;37.734;2024-03-08T03:32:46;2.72;;;1.63;;
75408;SDS011;63979;55.644;37.734;2024-03-08T03:37:51;1.15;;;1.05;;
75408;SDS011;63979;55.644;37.734;2024-03-08T03:43:12;3.25;;;1.73;;
75408;SDS011;63979;55.644;37.734;2024-03-08T03:48:13;1.52;;;1.20;;
75408;SDS011;63979;55.644;37.734;2024-03-08T03:53:14;4.80;;;1.85;;
75408;SDS011;63979;55.644;37.734;2024-03-08T03:58:15;5.10;;;1.95;;
75408;SDS011;63979;55.644;37.734;2024-03-08T04:03:16;8.68;;;1.95;;
75408;SDS011;63979;55.644;37.734;2024-03-08T04:08:17;3.33;;;2.50;;
75408;SDS011;63979;55.644;37.734;2024-03-08T04:13:18;1.55;;;1.13;;
75408;SDS011;63979;55.644;37.734;2024-03-08T04:18:20;4.63;;;1.85;;
75408;SDS011;63979;55.644;37.734;2024-03-08T04:23:21;5.75;;;2.53;;
75408;SDS011;63979;55.644;37.734;2024-03-08T04:28:22;4.97;;;2.55;;
75408;SDS011;63979;55.644;37.734;2024-03-08T04:33:23;4.60;;;2.38;;
75408;SDS011;63979;55.644;37.734;2024-03-08T04:38:24;2.88;;;2.38;;
75408;SDS011;63979;55.644;37.734;2024-03-08T04:43:25;4.35;;;2.08;;
75408;SDS011;63979;55.644;37.734;2024-03-08T04:48:27;6.38;;;2.83;;
75408;SDS011;63979;55.644;37.734;2024-03-08T04:53:28;5.40;;;1.95;;
75408;SDS011;63979;55.644;37.734;2024-03-08T04:58:29;0.32;;;0.30;;
75408;SDS011;63979;55.644;37.734;2024-03-08T05:03:30;4.43;;;1.80;;
75408;SDS011;63979;55.644;37.734;2024-03-08T05:08:30;5.40;;;2.92;;
75408;SDS011;63979;55.644;37.734;2024-03-08T05:13:31;4.25;;;1.40;;
75408;SDS011;63979;55.644;37.734;2024-03-08T05:18:35;5.93;;;3.15;;
75408;SDS011;63979;55.644;37.734;2024-03-08T05:23:36;5.22;;;2.33;;
75408;SDS011;63979;55.644;37.734;2024-03-08T05:28:39;3.30;;;2.53;;
75408;SDS011;63979;55.644;37.734;2024-03-08T05:33:40;3.65;;;2.13;;
75408;SDS011;63979;55.644;37.734;2024-03-08T05:38:43;5.80;;;2.88;;
75408;SDS011;63979;55.644;37.734;2024-03-08T05:43:44;3.85;;;2.78;;
75408;SDS011;63979;55.644;37.734;2024-03-08T05:48:45;4.97;;;2.03;;
75408;SDS011;63979;55.644;37.734;2024-03-08T05:53:46;17.10;;;3.00;;
75408;SDS011;63979;55.644;37.734;2024-03-08T05:58:47;5.20;;;2.90;;
75408;SDS011;63979;55.644;37.734;2024-03-08T06:03:50;7.80;;;4.47;;
75408;SDS011;63979;55.644;37.734;2024-03-08T06:08:51;5.00;;;2.75;;
75408;SDS011;63979;55.644;37.734;2024-03-08T06:13:53;7.10;;;4.18;;
75408;SDS011;63979;55.644;37.734;2024-03-08T06:19:03;6.97;;;2.80;;
75408;SDS011;63979;55.644;37.734;2024-03-08T06:24:04;5.50;;;3.03;;
75408;SDS011;63979;55.644;37.734;2024-03-08T06:29:06;5.88;;;2.75;;
75408;SDS011;63979;55.644;37.734;2024-03-08T06:34:07;5.65;;;2.65;;
75408;SDS011;63979;55.644;37.734;2024-03-08T06:39:08;5.93;;;3.20;;
75408;SDS011;63979;55.644;37.734;2024-03-08T06:44:12;7.63;;;3.45;;
75408;SDS011;63979;55.644;37.734;2024-03-08T06:49:13;4.53;;;2.35;;
75408;SDS011;63979;55.644;37.734;2024-03-08T06:54:14;8.05;;;3.92;;
75408;SDS011;63979;55.644;37.734;2024-03-08T06:59:14;3.80;;;2.38;;
75408;SDS011;63979;55.644;37.734;2024-03-08T07:04:18;7.05;;;3.72;;
75408;SDS011;63979;55.644;37.734;2024-03-08T07:09:20;6.85;;;3.25;;
75408;SDS011;63979;55.644;37.734;2024-03-08T07:14:21;7.88;;;3.20;;
75408;SDS011;63979;55.644;37.734;2024-03-08T07:19:23;8.57;;;3.85;;
75408;SDS011;63979;55.644;37.734;2024-03-08T07:24:24;5.65;;;2.65;;
75408;SDS011;63979;55.644;37.734;2024-03-08T07:29:38;4.82;;;2.63;;
75408;SDS011;63979;55.644;37.734;2024-03-08T07:34:39;5.95;;;3.15;;
75408;SDS011;63979;55.644;37.734;2024-03-08T07:39:40;6.53;;;3.72;;
75408;SDS011;63979;55.644;37.734;2024-03-08T07:44:41;7.88;;;3.72;;
75408;SDS011;63979;55.644;37.734;2024-03-08T07:49:42;5.68;;;3.70;;
75408;SDS011;63979;55.644;37.734;2024-03-08T07:54:44;7.72;;;3.92;;
75408;SDS011;63979;55.644;37.734;2024-03-08T07:59:45;8.45;;;3.75;;
75408;SDS011;63979;55.644;37.734;2024-03-08T08:04:46;8.20;;;3.65;;
75408;SDS011;63979;55.644;37.734;2024-03-08T08:09:47;6.00;;;3.22;;
75408;SDS011;63979;55.644;37.734;2024-03-08T08:14:48;9.55;;;4.47;;
75408;SDS011;63979;55.644;37.734;2024-03-08T08:19:49;7.10;;;3.50;;
75408;SDS011;63979;55.644;37.734;2024-03-08T08:24:50;6.03;;;3.90;;
75408;SDS011;63979;55.644;37.734;2024-03-08T08:29:52;5.80;;;3.20;;
75408;SDS011;63979;55.644;37.734;2024-03-08T08:34:53;12.20;;;4.15;;
75408;SDS011;63979;55.644;37.734;2024-03-08T08:39:54;12.45;;;4.97;;
75408;SDS011;63979;55.644;37.734;2024-03-08T08:44:55;9.35;;;3.13;;
75408;SDS011;63979;55.644;37.734;2024-03-08T08:49:58;8.10;;;3.75;;
75408;SDS011;63979;55.644;37.734;2024-03-08T08:54:59;7.00;;;3.75;;
75408;SDS011;63979;55.644;37.734;2024-03-08T09:00:01;11.32;;;4.53;;
75408;SDS011;63979;55.644;37.734;2024-03-08T09:05:07;8.45;;;3.58;;
75408;SDS011;63979;55.644;37.734;2024-03-08T09:10:08;8.50;;;3.80;;
75408;SDS011;63979;55.644;37.734;2024-03-08T09:15:10;8.65;;;4.78;;
75408;SDS011;63979;55.644;37.734;2024-03-08T09:20:13;5.85;;;3.85;;
75408;SDS011;63979;55.644;37.734;2024-03-08T09:25:15;8.93;;;5.25;;
75408;SDS011;63979;55.644;37.734;2024-03-08T09:30:18;6.40;;;4.63;;
75408;SDS011;63979;55.644;37.734;2024-03-08T09:35:19;7.93;;;3.65;;
75408;SDS011;63979;55.644;37.734;2024-03-08T09:40:20;10.32;;;5.35;;
75408;SDS011;63979;55.644;37.734;2024-03-08T09:45:23;7.38;;;4.63;;
75408;SDS011;63979;55.644;37.734;2024-03-08T09:50:26;8.25;;;4.53;;
75408;SDS011;63979;55.644;37.734;2024-03-08T09:55:28;10.20;;;5.18;;
75408;SDS011;63979;55.644;37.734;2024-03-08T10:00:34;12.55;;;6.70;;
75408;SDS011;63979;55.644;37.734;2024-03-08T10:05:35;6.65;;;4.45;;
75408;SDS011;63979;55.644;37.734;2024-03-08T10:10:36;9.75;;;5.22;;
75408;SDS011;63979;55.644;37.734;2024-03-08T10:15:39;7.65;;;4.35;;
75408;SDS011;63979;55.644;37.734;2024-03-08T10:20:40;5.50;;;3.60;;
75408;SDS011;63979;55.644;37.734;2024-03-08T10:25:43;8.52;;;5.47;;
75408;SDS011;63979;55.644;37.734;2024-03-08T10:30:47;6.68;;;4.30;;
75408;SDS011;63979;55.644;37.734;2024-03-08T10:35:49;8.85;;;4.63;;
75408;SDS011;63979;55.644;37.734;2024-03-08T10:40:50;12.75;;;5.10;;
75408;SDS011;63979;55.644;37.734;2024-03-08T10:45:55;6.05;;;4.40;;
75408;SDS011;63979;55.644;37.734;2024-03-08T10:51:29;8.52;;;4.97;;
75408;SDS011;63979;55.644;37.734;2024-03-08T10:56:31;16.48;;;8.30;;
75408;SDS011;63979;55.644;37.734;2024-03-08T11:01:32;10.13;;;5.38;;
75408;SDS011;63979;55.644;37.734;2024-03-08T11:11:38;10.02;;;5.22;;
75408;SDS011;63979;55.644;37.734;2024-03-08T11:16:43;10.30;;;5.30;;
75408;SDS011;63979;55.644;37.734;2024-03-08T11:21:45;8.75;;;4.22;;
75408;SDS011;63979;55.644;37.734;2024-03-08T11:26:46;6.70;;;4.20;;
75408;SDS011;63979;55.644;37.734;2024-03-08T11:31:47;10.45;;;5.15;;
75408;SDS011;63979;55.644;37.734;2024-03-08T11:36:48;13.85;;;5.43;;
75408;SDS011;63979;55.644;37.734;2024-03-08T11:41:49;8.65;;;4.93;;
75408;SDS011;63979;55.644;37.734;2024-03-08T11:46:50;9.93;;;5.72;;
75408;SDS011;63979;55.644;37.734;2024-03-08T11:51:52;10.68;;;6.32;;
75408;SDS011;63979;55.644;37.734;2024-03-08T11:56:54;9.10;;;5.45;;
75408;SDS011;63979;55.644;37.734;2024-03-08T12:02:02;5.60;;;4.18;;
75408;SDS011;63979;55.644;37.734;2024-03-08T12:07:04;10.90;;;4.70;;
75408;SDS011;63979;55.644;37.734;2024-03-08T12:12:09;7.78;;;5.20;;
75408;SDS011;63979;55.644;37.734;2024-03-08T12:17:12;10.35;;;5.68;;
75408;SDS011;63979;55.644;37.734;2024-03-08T12:22:14;7.90;;;4.43;;
75408;SDS011;63979;55.644;37.734;2024-03-08T12:27:19;8.05;;;4.85;;
75408;SDS011;63979;55.644;37.734;2024-03-08T12:32:21;10.02;;;5.78;;
75408;SDS011;63979;55.644;37.734;2024-03-08T12:37:23;6.15;;;3.63;;
75408;SDS011;63979;55.644;37.734;2024-03-08T12:42:24;6.85;;;4.35;;
75408;SDS011;63979;55.644;37.734;2024-03-08T12:47:26;7.15;;;4.72;;
75408;SDS011;63979;55.644;37.734;2024-03-08T12:52:30;9.45;;;4.00;;
75408;SDS011;63979;55.644;37.734;2024-03-08T12:57:35;7.07;;;4.10;;
75408;SDS011;63979;55.644;37.734;2024-03-08T13:02:37;5.28;;;2.10;;
75408;SDS011;63979;55.644;37.734;2024-03-08T13:07:39;8.15;;;4.38;;
75408;SDS011;63979;55.644;37.734;2024-03-08T13:12:45;5.93;;;3.55;;
75408;SDS011;63979;55.644;37.734;2024-03-08T13:17:49;6.60;;;4.13;;
75408;SDS011;63979;55.644;37.734;2024-03-08T13:22:50;5.90;;;3.47;;
75408;SDS011;63979;55.644;37.734;2024-03-08T13:27:51;7.40;;;4.30;;
75408;SDS011;63979;55.644;37.734;2024-03-08T13:32:54;5.38;;;2.47;;
75408;SDS011;63979;55.644;37.734;2024-03-08T13:37:55;6.68;;;3.83;;
75408;SDS011;63979;55.644;37.734;2024-03-08T13:42:56;5.53;;;3.60;;
75408;SDS011;63979;55.644;37.734;2024-03-08T13:47:57;7.15;;;2.90;;
75408;SDS011;63979;55.644;37.734;2024-03-08T13:52:58;9.00;;;5.03;;
75408;SDS011;63979;55.644;37.734;2024-03-08T13:57:58;4.60;;;3.13;;
75408;SDS011;63979;55.644;37.734;2024-03-08T14:03:00;6.38;;;3.53;;
75408;SDS011;63979;55.644;37.734;2024-03-08T14:08:02;6.32;;;3.92;;
75408;SDS011;63979;55.644;37.734;2024-03-08T14:13:04;6.43;;;3.20;;
75408;SDS011;63979;55.644;37.734;2024-03-08T14:18:07;7.20;;;3.60;;
75408;SDS011;63979;55.644;37.734;2024-03-08T14:23:08;8.68;;;3.90;;
75408;SDS011;63979;55.644;37.734;2024-03-08T14:28:08;8.50;;;3.53;;
75408;SDS011;63979;55.644;37.734;2024-03-08T14:33:10;7.85;;;4.68;;
75408;SDS011;63979;55.644;37.734;2024-03-08T14:38:12;9.20;;;3.95;;
75408;SDS011;63979;55.644;37.734;2024-03-08T14:43:13;7.68;;;3.58;;
75408;SDS011;63979;55.644;37.734;2024-03-08T14:48:14;8.40;;;3.92;;
75408;SDS011;63979;55.644;37.734;2024-03-08T14:53:15;8.02;;;3.88;;
75408;SDS011;63979;55.644;37.734;2024-03-08T14:58:16;6.78;;;4.47;;
75408;SDS011;63979;55.644;37.734;2024-03-08T15:03:17;9.02;;;2.80;;
75408;SDS011;63979;55.644;37.734;2024-03-08T15:08:20;4.80;;;2.95;;
75408;SDS011;63979;55.644;37.734;2024-03-08T15:13:22;5.57;;;3.45;;
75408;SDS011;63979;55.644;37.734;2024-03-08T15:18:27;5.90;;;3.40;;
75408;SDS011;63979;55.644;37.734;2024-03-08T15:23:35;5.45;;;2.90;;
75408;SDS011;63979;55.644;37.734;2024-03-08T15:28:36;3.28;;;2.22;;
75408;SDS011;63979;55.644;37.734;2024-03-08T15:33:39;6.63;;;2.83;;
75408;SDS011;63979;55.644;37.734;2024-03-08T15:38:48;4.28;;;2.75;;
75408;SDS011;63979;55.644;37.734;2024-03-08T15:43:51;6.68;;;4.05;;
75408;SDS011;63979;55.644;37.734;2024-03-08T15:48:51;5.03;;;3.00;;
75408;SDS011;63979;55.644;37.734;2024-03-08T15:53:52;6.28;;;2.80;;
75408;SDS011;63979;55.644;37.734;2024-03-08T15:58:54;7.85;;;4.13;;
75408;SDS011;63979;55.644;37.734;2024-03-08T16:03:54;7.05;;;3.25;;
75408;SDS011;63979;55.644;37.734;2024-03-08T16:08:58;2.97;;;2.63;;
75408;SDS011;63979;55.644;37.734;2024-03-08T16:14:00;5.38;;;2.40;;
75408;SDS011;63979;55.644;37.734;2024-03-08T16:24:07;12.00;;;3.97;;
75408;SDS011;63979;55.644;37.734;2024-03-08T16:29:09;8.60;;;4.10;;
75408;SDS011;63979;55.644;37.734;2024-03-08T16:34:13;4.90;;;2.70;;
75408;SDS011;63979;55.644;37.734;2024-03-08T16:39:16;6.75;;;3.20;;
75408;SDS011;63979;55.644;37.734;2024-03-08T16:44:17;5.85;;;3.20;;
75408;SDS011;63979;55.644;37.734;2024-03-08T16:49:20;10.90;;;5.40;;
75408;SDS011;63979;55.644;37.734;2024-03-08T16:54:21;5.60;;;3.05;;
75408;SDS011;63979;55.644;37.734;2024-03-08T16:59:22;5.15;;;2.40;;
75408;SDS011;63979;55.644;37.734;2024-03-08T17:04:24;6.13;;;2.63;;
75408;SDS011;63979;55.644;37.734;2024-03-08T17:09:26;7.63;;;3.42;;
75408;SDS011;63979;55.644;37.734;2024-03-08T17:14:27;9.00;;;3.70;;
75408;SDS011;63979;55.644;37.734;2024-03-08T17:19:29;6.90;;;2.33;;
75408;SDS011;63979;55.644;37.734;2024-03-08T17:24:30;7.93;;;3.20;;
75408;SDS011;63979;55.644;37.734;2024-03-08T17:29:32;7.03;;;2.42;;
75408;SDS011;63979;55.644;37.734;2024-03-08T17:34:33;5.20;;;3.17;;
75408;SDS011;63979;55.644;37.734;2024-03-08T17:39:36;5.88;;;2.80;;
75408;SDS011;63979;55.644;37.734;2024-03-08T17:44:38;5.22;;;2.70;;
75408;SDS011;63979;55.644;37.734;2024-03-08T17:49:39;2.80;;;1.45;;
75408;SDS011;63979;55.644;37.734;2024-03-08T17:54:40;5.22;;;2.72;;
75408;SDS011;63979;55.644;37.734;2024-03-08T17:59:41;5.20;;;2.83;;
75408;SDS011;63979;55.644;37.734;2024-03-08T18:04:44;8.25;;;3.20;;
75408;SDS011;63979;55.644;37.734;2024-03-08T18:09:48;3.75;;;2.13;;
75408;SDS011;63979;55.644;37.734;2024-03-08T18:14:49;5.47;;;3.25;;
75408;SDS011;63979;55.644;37.734;2024-03-08T18:19:50;6.55;;;2.28;;
75408;SDS011;63979;55.644;37.734;2024-03-08T18:24:52;3.50;;;2.10;;
75408;SDS011;63979;55.644;37.734;2024-03-08T18:29:53;4.13;;;2.67;;
75408;SDS011;63979;55.644;37.734;2024-03-08T18:34:54;3.65;;;2.40;;
75408;SDS011;63979;55.644;37.734;2024-03-08T18:39:55;4.25;;;2.03;;
75408;SDS011;63979;55.644;37.734;2024-03-08T18:44:56;5.43;;;2.58;;
75408;SDS011;63979;55.644;37.734;2024-03-08T18:49:57;2.03;;;1.38;;
75408;SDS011;63979;55.644;37.734;2024-03-08T18:54:59;3.80;;;1.48;;
75408;SDS011;63979;55.644;37.734;2024-03-08T19:00:00;3.55;;;1.60;;
75408;SDS011;63979;55.644;37.734;2024-03-08T19:05:01;3.25;;;1.77;;
75408;SDS011;63979;55.644;37.734;2024-03-08T19:10:05;2.80;;;1.52;;
75408;SDS011;63979;55.644;37.734;2024-03-08T19:15:08;1.13;;;1.02;;
75408;SDS011;63979;55.644;37.734;2024-03-08T19:20:12;5.13;;;2.35;;
75408;SDS011;63979;55.644;37.734;2024-03-08T19:25:17;3.30;;;1.95;;
75408;SDS011;63979;55.644;37.734;2024-03-08T19:30:19;2.90;;;1.65;;
75408;SDS011;63979;55.644;37.734;2024-03-08T19:35:27;3.78;;;1.70;;
75408;SDS011;63979;55.644;37.734;2024-03-08T19:40:31;5.07;;;2.25;;
75408;SDS011;63979;55.644;37.734;2024-03-08T19:45:36;4.00;;;1.35;;
75408;SDS011;63979;55.644;37.734;2024-03-08T19:50:39;4.45;;;1.23;;
75408;SDS011;63979;55.644;37.734;2024-03-08T19:55:43;3.20;;;1.45;;
75408;SDS011;63979;55.644;37.734;2024-03-08T20:00:49;1.02;;;0.93;;
75408;SDS011;63979;55.644;37.734;2024-03-08T20:05:50;1.38;;;0.70;;
75408;SDS011;63979;55.644;37.734;2024-03-08T20:10:55;2.03;;;0.75;;
75408;SDS011;63979;55.644;37.734;2024-03-08T20:15:56;3.58;;;0.93;;
75408;SDS011;63979;55.644;37.734;2024-03-08T20:20:57;2.50;;;1.25;;
75408;SDS011;63979;55.644;37.734;2024-03-08T20:25:58;1.60;;;0.93;;
75408;SDS011;63979;55.644;37.734;2024-03-08T20:31:01;1.48;;;0.70;;
75408;SDS011;63979;55.644;37.734;2024-03-08T20:36:02;1.75;;;0.85;;
75408;SDS011;63979;55.644;37.734;2024-03-08T20:41:03;1.10;;;0.75;;
75408;SDS011;63979;55.644;37.734;2024-03-08T20:46:08;1.85;;;0.60;;
75408;SDS011;63979;55.644;37.734;2024-03-08T20:51:11;1.35;;;1.20;;
75408;SDS011;63979;55.644;37.734;2024-03-08T20:56:13;1.75;;;0.70;;
75408;SDS011;63979;55.644;37.734;2024-03-08T21:01:15;1.30;;;0.80;;
75408;SDS011;63979;55.644;37.734;2024-03-08T21:06:16;1.27;;;0.98;;
75408;SDS011;63979;55.644;37.734;2024-03-08T21:11:18;2.38;;;0.85;;
75408;SDS011;63979;55.644;37.734;2024-03-08T21:16:19;2.05;;;0.90;;
75408;SDS011;63979;55.644;37.734;2024-03-08T21:21:20;0.93;;;0.60;;
75408;SDS011;63979;55.644;37.734;2024-03-08T21:26:21;1.05;;;0.80;;
75408;SDS011;63979;55.644;37.734;2024-03-08T21:31:22;1.27;;;0.80;;
75408;SDS011;63979;55.644;37.734;2024-03-08T21:36:23;1.33;;;0.60;;
75408;SDS011;63979;55.644;37.734;2024-03-08T21:41:24;2.78;;;0.63;;
75408;SDS011;63979;55.644;37.734;2024-03-08T21:46:25;1.70;;;0.68;;
75408;SDS011;63979;55.644;37.734;2024-03-08T21:51:26;2.08;;;1.00;;
75408;SDS011;63979;55.644;37.734;2024-03-08T21:56:28;2.70;;;0.50;;
75408;SDS011;63979;55.644;37.734;2024-03-08T22:01:28;0.45;;;0.40;;
75408;SDS011;63979;55.644;37.734;2024-03-08T22:06:30;0.80;;;0.32;;
75408;SDS011;63979;55.644;37.734;2024-03-08T22:11:32;1.85;;;0.77;;
75408;SDS011;63979;55.644;37.734;2024-03-08T22:16:33;0.43;;;0.20;;
75408;SDS011;63979;55.644;37.734;2024-03-08T22:21:36;2.35;;;0.55;;
75408;SDS011;63979;55.644;37.734;2024-03-08T22:26:37;1.05;;;0.40;;
75408;SDS011;63979;55.644;37.734;2024-03-08T22:31:38;2.42;;;0.60;;
75408;SDS011;63979;55.644;37.734;2024-03-08T22:36:40;0.52;;;0.43;;
75408;SDS011;63979;55.644;37.734;2024-03-08T22:41:42;0.47;;;0.32;;
75408;SDS011;63979;55.644;37.734;2024-03-08T22:46:43;0.60;;;0.30;;
75408;SDS011;63979;55.644;37.734;2024-03-08T22:51:45;1.13;;;0.75;;
75408;SDS011;63979;55.644;37.734;2024-03-08T22:56:47;1.80;;;0.63;;
75408;SDS011;63979;55.644;37.734;2024-03-08T23:01:48;1.08;;;0.60;;
75408;SDS011;63979;55.644;37.734;2024-03-08T23:06:49;0.98;;;0.57;;
75408;SDS011;63979;55.644;37.734;2024-03-08T23:11:50;0.65;;;0.52;;
75408;SDS011;63979;55.644;37.734;2024-03-08T23:16:51;3.85;;;0.57;;
75408;SDS011;63979;55.644;37.734;2024-03-08T23:21:52;0.70;;;0.50;;
75408;SDS011;63979;55.644;37.734;2024-03-08T23:26:54;0.98;;;0.50;;
75408;SDS011;63979;55.644;37.734;2024-03-08T23:31:54;1.35;;;0.50;;
75408;SDS011;63979;55.644;37.734;2024-03-08T23:36:55;1.33;;;0.63;;
75408;SDS011;63979;55.644;37.734;2024-03-08T23:41:56;1.30;;;0.80;;
75408;SDS011;63979;55.644;37.734;2024-03-08T23:46:57;0.43;;;0.30;;
75408;SDS011;63979;55.644;37.734;2024-03-08T23:51:58;0.82;;;0.70;;
75408;SDS011;63979;55.644;37.734;2024-03-08T23:56:58;0.75;;;0.45;;
